Time;durP1;ratioP1;P1;durP2;ratioP2;P2;SDS_P1;SDS_P2;PMS_P1;PMS_P2;Temp;Humidity;BMP_temperature;BMP_pressure;BME280_temperature;BME280_humidity;BME280_pressure;Samples;Min_cycle;Max_cycle;Signal;HPM_P1;HPM_P2
2022/02/01 00:01:22;;;;;;;15.93;3.80;;;4.60;99.90;;;;;;5073019;28;20481;-81
2022/02/01 00:03:53;;;;;;;11.33;3.10;;;4.40;99.90;;;;;;5073357;28;20189;-83
2022/02/01 00:06:27;;;;;;;10.53;2.50;;;4.30;99.90;;;;;;5073456;28;20197;-83
2022/02/01 00:09:04;;;;;;;14.73;3.27;;;4.20;99.90;;;;;;5073285;28;20439;-81
2022/02/01 00:11:38;;;;;;;12.20;3.20;;;4.10;99.90;;;;;;5073134;28;20439;-84
2022/02/01 00:14:15;;;;;;;15.17;3.27;;;4.10;99.90;;;;;;5073472;28;20452;-82
2022/02/01 00:16:59;;;;;;;17.87;2.93;;;4.00;99.90;;;;;;5073487;28;20438;-83
2022/02/01 00:19:59;;;;;;;16.07;3.13;;;4.00;99.90;;;;;;5072757;28;20520;-83
2022/02/01 00:33:54;;;;;;;14.40;3.67;;;3.60;99.90;;;;;;5072720;28;20415;-83
2022/02/01 00:36:30;;;;;;;16.63;3.17;;;3.60;99.90;;;;;;5071388;28;20450;-81
2022/02/01 00:39:04;;;;;;;22.87;4.97;;;3.60;99.90;;;;;;5072501;28;20451;-81
2022/02/01 00:41:33;;;;;;;17.93;3.00;;;3.60;99.90;;;;;;5072589;28;20499;-83
2022/02/01 00:44:06;;;;;;;19.70;3.80;;;3.60;99.90;;;;;;5072784;28;20457;-83
2022/02/01 00:46:35;;;;;;;21.07;4.30;;;3.60;99.90;;;;;;5072756;28;20451;-82
2022/02/01 00:49:03;;;;;;;17.67;4.00;;;3.60;99.90;;;;;;5072451;28;20478;-80
2022/02/01 00:51:30;;;;;;;9.87;2.70;;;3.60;99.90;;;;;;5072721;28;20457;-83
2022/02/01 00:53:58;;;;;;;17.20;3.63;;;3.50;99.90;;;;;;5072837;28;20930;-80
2022/02/01 00:56:25;;;;;;;13.10;3.10;;;3.50;99.90;;;;;;5072766;28;20459;-84
2022/02/01 00:58:52;;;;;;;15.63;2.70;;;3.50;99.90;;;;;;5073087;28;20453;-86
2022/02/01 01:01:19;;;;;;;17.03;3.27;;;3.50;99.90;;;;;;5076182;28;21094;-83
2022/02/01 01:03:47;;;;;;;17.77;2.50;;;3.50;99.90;;;;;;5075989;28;20446;-83
2022/02/01 01:06:15;;;;;;;10.43;3.03;;;3.50;99.90;;;;;;5076396;28;20462;-82
2022/02/01 01:08:42;;;;;;;12.70;2.70;;;3.50;99.90;;;;;;5076710;28;20847;-84
2022/02/01 01:11:11;;;;;;;11.57;2.80;;;3.50;99.90;;;;;;5076689;28;20890;-84
2022/02/01 01:16:49;;;;;;;7.37;2.53;;;3.50;99.90;;;;;;5021324;28;20437;-86
2022/02/01 01:43:33;;;;;;;9.13;2.87;;;3.50;99.90;;;;;;5093518;28;20477;-82
2022/02/01 01:44:37;;;;;;;6.43;2.77;;;3.60;99.90;;;;;;5096137;28;20417;-84
2022/02/01 01:55:21;;;;;;;11.80;2.53;;;3.80;99.90;;;;;;5095761;28;20498;-79
2022/02/01 01:57:48;;;;;;;11.63;2.70;;;3.90;99.90;;;;;;5095646;28;20921;-83
2022/02/01 02:00:31;;;;;;;14.53;3.37;;;3.90;99.90;;;;;;5095754;28;20441;-83
2022/02/01 02:02:58;;;;;;;11.50;2.50;;;3.90;99.90;;;;;;5095680;28;20489;-82
2022/02/01 02:05:25;;;;;;;15.55;3.45;;;3.90;99.90;;;;;;5094753;28;20801;-82
2022/02/01 02:07:51;;;;;;;10.53;2.27;;;3.90;99.90;;;;;;5095762;28;20208;-82
2022/02/01 02:10:25;;;;;;;11.43;2.87;;;3.90;99.90;;;;;;5095321;28;20434;-81
2022/02/01 02:12:58;;;;;;;9.10;2.43;;;4.00;99.90;;;;;;5095546;28;20453;-84
2022/02/01 02:15:36;;;;;;;7.03;2.17;;;4.00;99.90;;;;;;5095121;28;20438;-81
2022/02/01 02:18:03;;;;;;;8.17;2.67;;;4.10;99.90;;;;;;5095342;28;20529;-83
2022/02/01 02:20:41;;;;;;;13.47;3.17;;;4.10;99.90;;;;;;5095376;28;20445;-81
2022/02/01 02:23:11;;;;;;;13.23;2.80;;;4.10;99.90;;;;;;5095108;28;20826;-84
2022/02/01 02:25:39;;;;;;;10.50;2.50;;;4.10;99.90;;;;;;5095355;28;20453;-84
2022/02/01 02:28:09;;;;;;;10.13;2.90;;;4.10;99.90;;;;;;5095169;28;20963;-81
2022/02/01 02:30:36;;;;;;;12.37;2.73;;;4.10;99.90;;;;;;5094849;28;20437;-83
2022/02/01 02:33:04;;;;;;;12.77;3.13;;;4.20;99.90;;;;;;5095321;28;20972;-88
2022/02/01 02:35:34;;;;;;;12.00;2.73;;;4.10;99.90;;;;;;5095303;28;20461;-83
2022/02/01 02:38:05;;;;;;;19.47;3.03;;;4.10;99.90;;;;;;5095208;28;20452;-81
2022/02/01 02:40:54;;;;;;;12.67;2.43;;;4.10;99.90;;;;;;5094886;28;20929;-83
2022/02/01 02:46:07;;;;;;;14.40;3.27;;;4.20;99.90;;;;;;5094886;28;20936;-82
2022/02/01 02:48:34;;;;;;;11.80;2.57;;;4.10;99.90;;;;;;5094876;28;20601;-84
2022/02/01 02:51:01;;;;;;;10.40;2.83;;;4.20;99.90;;;;;;5094762;28;20450;-86
2022/02/01 02:53:28;;;;;;;15.63;3.07;;;4.20;99.90;;;;;;5094685;28;20452;-80
2022/02/01 02:55:58;;;;;;;12.27;2.93;;;4.30;99.90;;;;;;5094789;28;20465;-83
2022/02/01 02:58:25;;;;;;;20.77;3.70;;;4.40;99.90;;;;;;5092859;28;20474;-83
2022/02/01 03:00:51;;;;;;;23.03;3.60;;;4.30;99.90;;;;;;5093915;28;20449;-82
2022/02/01 03:03:19;;;;;;;15.93;3.30;;;4.40;99.90;;;;;;5094264;28;20499;-80
2022/02/01 03:05:47;;;;;;;17.97;4.77;;;4.40;99.90;;;;;;5095084;28;20527;-82
2022/02/01 03:08:14;;;;;;;15.20;3.50;;;4.40;99.90;;;;;;5094402;28;20469;-81
2022/02/01 03:10:43;;;;;;;14.30;3.70;;;4.40;99.90;;;;;;5094574;28;20430;-83
2022/02/01 03:13:15;;;;;;;17.52;4.28;;;4.30;99.90;;;;;;5093768;28;20430;-81
2022/02/01 03:15:48;;;;;;;13.60;4.27;;;4.30;99.90;;;;;;5094224;28;20197;-82
2022/02/01 03:20:59;;;;;;;14.70;4.20;;;4.20;99.90;;;;;;5092789;28;20465;-83
2022/02/01 03:23:26;;;;;;;18.43;4.70;;;4.30;99.90;;;;;;5091654;28;20485;-81
2022/02/01 03:25:53;;;;;;;16.20;4.67;;;4.30;99.90;;;;;;5091694;28;20445;-82
2022/02/01 03:28:21;;;;;;;21.00;5.03;;;4.30;99.90;;;;;;5093144;28;20449;-83
2022/02/01 03:30:48;;;;;;;20.13;5.13;;;4.30;99.90;;;;;;5094182;28;20441;-83
2022/02/01 03:33:16;;;;;;;18.67;4.87;;;4.30;99.90;;;;;;5094057;28;20786;-82
2022/02/01 03:35:43;;;;;;;20.33;4.87;;;4.40;99.90;;;;;;5094113;28;20464;-85
2022/02/01 03:38:10;;;;;;;18.40;5.27;;;4.50;99.90;;;;;;5094404;28;20434;-85
2022/02/01 03:40:38;;;;;;;19.17;4.93;;;4.40;99.90;;;;;;5093907;28;20437;-82
2022/02/01 03:43:05;;;;;;;22.17;5.07;;;4.40;99.90;;;;;;5093458;28;20497;-84
2022/02/01 03:45:34;;;;;;;26.93;6.20;;;4.40;99.90;;;;;;5093732;28;20456;-83
2022/02/01 03:48:02;;;;;;;22.83;6.70;;;4.40;99.90;;;;;;5093187;28;20419;-82
2022/02/01 03:50:29;;;;;;;22.70;5.83;;;4.50;99.90;;;;;;5093844;28;20197;-86
2022/02/01 03:52:58;;;;;;;24.37;6.60;;;4.50;99.90;;;;;;5094088;28;20445;-84
2022/02/01 03:55:25;;;;;;;20.73;5.70;;;4.40;99.90;;;;;;5093714;28;20449;-85
2022/02/01 03:57:52;;;;;;;15.80;6.10;;;4.50;99.90;;;;;;5093746;28;20205;-81
2022/02/01 04:00:20;;;;;;;20.10;5.83;;;4.50;99.90;;;;;;5093809;28;20441;-85
2022/02/01 04:02:48;;;;;;;24.77;6.63;;;4.60;99.90;;;;;;5093706;28;20217;-83
2022/02/01 04:05:15;;;;;;;19.53;6.40;;;4.70;99.90;;;;;;5093223;28;20468;-82
2022/02/01 04:07:46;;;;;;;22.47;6.80;;;4.60;99.90;;;;;;5093255;28;20434;-83
2022/02/01 04:10:13;;;;;;;16.17;7.00;;;4.70;99.90;;;;;;5093402;28;20445;-83
2022/02/01 04:12:41;;;;;;;22.20;6.43;;;4.70;99.90;;;;;;5093189;28;20424;-83
2022/02/01 04:15:09;;;;;;;15.90;6.73;;;4.80;99.90;;;;;;5093093;28;20464;-84
2022/02/01 04:17:37;;;;;;;17.53;6.47;;;4.80;99.90;;;;;;5093298;28;20506;-83
2022/02/01 04:20:07;;;;;;;20.47;6.13;;;4.80;99.90;;;;;;5093420;28;20311;-82
2022/02/01 04:22:34;;;;;;;18.35;6.78;;;4.80;99.90;;;;;;5092595;28;20442;-79
2022/02/01 04:25:00;;;;;;;18.77;6.93;;;4.90;99.90;;;;;;5093152;28;20189;-81
2022/02/01 04:27:31;;;;;;;19.90;6.80;;;4.90;99.90;;;;;;5093054;28;20212;-82
2022/02/01 04:30:06;;;;;;;25.13;6.30;;;4.90;99.90;;;;;;5093005;28;20201;-79
2022/02/01 04:32:34;;;;;;;21.43;6.70;;;4.80;99.90;;;;;;5093293;28;20189;-80
2022/02/01 04:35:01;;;;;;;15.00;6.53;;;4.90;99.90;;;;;;5093487;28;20460;-84
2022/02/01 04:37:31;;;;;;;20.07;7.07;;;4.90;99.90;;;;;;5093087;28;20442;-82
2022/02/01 04:39:58;;;;;;;19.50;6.70;;;4.90;99.90;;;;;;5092749;28;20438;-78
2022/02/01 04:42:28;;;;;;;20.63;6.43;;;5.00;99.90;;;;;;5093507;28;20307;-79
2022/02/01 04:44:55;;;;;;;22.80;6.97;;;5.00;99.90;;;;;;5093787;28;20205;-79
2022/02/01 04:47:28;;;;;;;19.97;6.87;;;5.10;99.90;;;;;;5093232;28;20197;-78
2022/02/01 04:49:55;;;;;;;22.67;6.70;;;5.00;99.90;;;;;;5093550;28;20570;-80
2022/02/01 04:52:24;;;;;;;21.07;7.30;;;5.00;99.90;;;;;;5093661;28;20446;-78
2022/02/01 04:54:52;;;;;;;16.83;6.40;;;4.90;99.90;;;;;;5092984;28;20537;-78
2022/02/01 04:57:19;;;;;;;26.10;7.47;;;4.90;99.90;;;;;;5092988;28;20740;-82
2022/02/01 04:59:46;;;;;;;19.57;7.20;;;4.90;99.90;;;;;;5093110;28;20205;-84
2022/02/01 05:02:13;;;;;;;17.70;6.90;;;4.90;99.90;;;;;;5093545;28;20232;-80
2022/02/01 05:04:40;;;;;;;22.33;7.00;;;4.90;99.90;;;;;;5093631;28;20206;-79
2022/02/01 05:07:13;;;;;;;18.90;7.10;;;4.90;99.90;;;;;;5093518;28;20453;-80
2022/02/01 05:09:40;;;;;;;23.50;7.03;;;4.90;99.90;;;;;;5093542;28;20201;-79
2022/02/01 05:12:10;;;;;;;22.60;7.77;;;4.90;99.90;;;;;;5094005;28;20445;-78
2022/02/01 05:14:37;;;;;;;13.50;6.47;;;4.90;99.90;;;;;;5094017;28;20446;-79
2022/02/01 05:17:05;;;;;;;21.40;7.13;;;4.90;99.90;;;;;;5093728;28;20547;-78
2022/02/01 05:22:19;;;;;;;18.43;7.37;;;4.80;99.90;;;;;;5094351;28;20568;-78
2022/02/01 05:24:49;;;;;;;20.80;7.23;;;4.90;99.90;;;;;;5095709;28;20227;-78
2022/02/01 05:27:20;;;;;;;20.50;7.90;;;4.90;99.90;;;;;;5094438;28;20529;-84
2022/02/01 05:29:47;;;;;;;20.13;6.90;;;4.70;99.90;;;;;;5094426;28;20513;-80
2022/02/01 05:32:24;;;;;;;27.55;9.20;;;4.70;99.90;;;;;;5093434;28;20415;-79
2022/02/01 05:34:52;;;;;;;24.87;8.20;;;4.70;99.90;;;;;;5092803;28;20205;-81
2022/02/01 05:37:19;;;;;;;19.23;7.27;;;4.70;99.90;;;;;;5092659;28;20453;-81
2022/02/01 05:39:47;;;;;;;19.50;6.93;;;4.60;99.90;;;;;;5092385;28;20444;-83
2022/02/01 05:42:17;;;;;;;22.17;6.93;;;4.60;99.90;;;;;;5092906;28;20473;-83
2022/02/01 05:44:46;;;;;;;22.73;7.10;;;4.50;99.90;;;;;;5093045;28;20434;-79
2022/02/01 05:47:15;;;;;;;24.43;7.17;;;4.50;99.90;;;;;;5096287;28;20449;-80
2022/02/01 05:49:43;;;;;;;21.03;7.33;;;4.60;99.90;;;;;;5096317;28;20952;-82
2022/02/01 05:52:14;;;;;;;19.33;6.63;;;4.50;99.90;;;;;;5096159;28;20422;-86
2022/02/01 05:54:41;;;;;;;16.53;6.57;;;4.50;99.90;;;;;;5094981;28;20491;-81
2022/02/01 05:57:09;;;;;;;22.77;7.27;;;4.50;99.90;;;;;;5095787;28;20457;-82
2022/02/01 05:59:38;;;;;;;19.10;6.70;;;4.50;99.90;;;;;;5096597;28;20433;-84
2022/02/01 06:02:07;;;;;;;16.47;6.17;;;4.50;99.90;;;;;;5095588;28;20457;-87
2022/02/01 06:04:34;;;;;;;18.37;7.13;;;4.50;99.90;;;;;;5095590;28;20460;-82
2022/02/01 06:07:02;;;;;;;21.30;8.48;;;4.60;99.90;;;;;;5094223;28;20422;-88
2022/02/01 06:09:29;;;;;;;19.33;7.83;;;4.70;99.90;;;;;;5096008;28;20190;-81
2022/02/01 06:11:55;;;;;;;19.53;7.60;;;4.70;99.90;;;;;;5095824;28;20430;-82
2022/02/01 06:14:23;;;;;;;18.63;7.50;;;4.70;99.90;;;;;;5095254;28;20434;-80
2022/02/01 06:16:50;;;;;;;17.03;7.70;;;4.60;99.90;;;;;;5095788;28;20450;-84
2022/02/01 06:19:18;;;;;;;16.43;7.60;;;4.60;99.90;;;;;;5095790;28;20450;-82
2022/02/01 06:21:45;;;;;;;15.13;8.00;;;4.50;99.90;;;;;;5095261;28;20937;-81
2022/02/01 06:24:16;;;;;;;15.43;8.70;;;4.60;99.90;;;;;;5095398;28;20576;-84
2022/02/01 06:26:43;;;;;;;14.57;8.03;;;4.60;99.90;;;;;;5096075;28;20425;-84
2022/02/01 06:29:13;;;;;;;16.70;8.00;;;4.60;99.90;;;;;;5095997;28;20430;-84
2022/02/01 06:31:40;;;;;;;22.77;8.10;;;4.70;99.90;;;;;;5095577;28;20437;-80
2022/02/01 06:34:07;;;;;;;16.70;8.20;;;4.70;99.90;;;;;;5095570;28;20450;-85
2022/02/01 06:36:38;;;;;;;13.63;8.13;;;4.80;99.90;;;;;;5095569;28;20433;-87
2022/02/01 06:39:11;;;;;;;14.83;8.17;;;4.80;99.90;;;;;;5095070;28;20449;-83
2022/02/01 06:41:38;;;;;;;17.13;7.93;;;4.80;99.90;;;;;;5093855;28;20540;-80
2022/02/01 06:44:07;;;;;;;16.07;8.23;;;4.80;99.90;;;;;;5094362;28;20466;-79
2022/02/01 06:46:35;;;;;;;15.77;8.37;;;4.90;99.90;;;;;;5095100;28;20434;-78
2022/02/01 06:49:03;;;;;;;19.60;8.77;;;5.00;99.90;;;;;;5094972;28;20449;-81
2022/02/01 06:51:30;;;;;;;13.83;8.97;;;5.00;99.90;;;;;;5094679;28;20948;-79
2022/02/01 06:53:59;;;;;;;14.33;7.97;;;5.00;99.90;;;;;;5094061;28;20511;-84
2022/02/01 06:56:29;;;;;;;17.77;8.13;;;5.00;99.90;;;;;;5095316;28;20490;-79
2022/02/01 06:58:58;;;;;;;17.70;8.33;;;5.00;99.90;;;;;;5094429;28;20452;-82
2022/02/01 07:01:26;;;;;;;18.30;7.83;;;5.00;99.90;;;;;;5096453;28;20442;-78
2022/02/01 07:03:53;;;;;;;16.27;8.20;;;5.00;99.90;;;;;;5095193;28;20481;-82
2022/02/01 07:06:21;;;;;;;15.53;8.27;;;5.10;99.90;;;;;;5095104;28;20216;-81
2022/02/01 07:08:49;;;;;;;14.80;8.30;;;5.20;99.90;;;;;;5094658;28;20452;-80
2022/02/01 07:11:23;;;;;;;14.60;8.47;;;5.20;99.90;;;;;;5095181;28;20446;-79
2022/02/01 07:13:50;;;;;;;11.77;7.63;;;5.20;99.90;;;;;;5094574;28;20481;-80
2022/02/01 07:16:19;;;;;;;15.17;8.40;;;5.20;99.90;;;;;;5093393;28;20442;-78
2022/02/01 07:18:46;;;;;;;13.63;7.57;;;5.20;99.90;;;;;;5092644;28;20457;-79
2022/02/01 07:21:13;;;;;;;24.10;8.60;;;5.30;99.90;;;;;;5093798;28;20453;-79
2022/02/01 07:23:40;;;;;;;18.67;9.07;;;5.30;99.90;;;;;;5094351;28;20709;-78
2022/02/01 07:26:10;;;;;;;17.93;8.37;;;5.40;99.90;;;;;;5094718;28;20649;-76
2022/02/01 07:28:40;;;;;;;10.03;8.07;;;5.50;99.90;;;;;;5096294;28;20200;-82
2022/02/01 07:31:09;;;;;;;18.70;9.23;;;5.40;99.90;;;;;;5088751;28;20300;-78
2022/02/01 07:33:37;;;;;;;21.93;9.30;;;5.40;99.90;;;;;;5094957;28;20197;-78
2022/02/01 07:36:05;;;;;;;21.07;9.10;;;5.50;99.90;;;;;;5095383;28;20193;-79
2022/02/01 07:38:33;;;;;;;14.20;8.20;;;5.50;99.90;;;;;;5094344;28;20544;-79
2022/02/01 07:41:00;;;;;;;15.20;8.40;;;5.60;99.90;;;;;;5094238;28;20577;-82
2022/02/01 07:43:31;;;;;;;19.70;9.73;;;5.60;99.90;;;;;;5094052;28;20232;-80
2022/02/01 07:46:04;;;;;;;16.73;9.50;;;5.60;99.90;;;;;;5093996;28;20209;-82
2022/02/01 07:48:31;;;;;;;15.30;9.43;;;5.50;99.90;;;;;;5093741;28;20233;-83
2022/02/01 07:50:58;;;;;;;20.70;9.97;;;5.50;99.90;;;;;;5093902;28;20201;-82
2022/02/01 07:53:26;;;;;;;23.50;10.73;;;5.60;99.90;;;;;;5093560;28;20456;-85
2022/02/01 07:55:52;;;;;;;21.50;10.57;;;5.60;99.90;;;;;;5093862;28;20215;-86
2022/02/01 07:58:21;;;;;;;15.90;9.50;;;5.60;99.90;;;;;;5094659;28;20591;-81
2022/02/01 08:00:48;;;;;;;20.70;10.50;;;5.60;99.90;;;;;;5093699;28;20204;-86
2022/02/01 08:03:16;;;;;;;25.30;11.90;;;5.70;99.90;;;;;;5094021;28;20274;-84
2022/02/01 08:05:45;;;;;;;15.77;11.00;;;5.70;99.90;;;;;;5094346;28;20197;-85
2022/02/01 08:08:13;;;;;;;19.13;12.23;;;5.70;99.90;;;;;;5094933;28;20212;-82
2022/02/01 08:10:44;;;;;;;15.73;11.73;;;5.80;99.90;;;;;;5094736;28;20201;-82
2022/02/01 08:19:05;;;;;;;17.63;11.07;;;5.80;99.90;;;;;;5093568;28;20212;-83
2022/02/01 08:21:42;;;;;;;22.20;11.53;;;5.80;99.90;;;;;;5092526;28;20292;-82
2022/02/01 08:24:09;;;;;;;22.13;12.90;;;5.80;99.90;;;;;;5092662;28;20220;-82
2022/02/01 08:26:38;;;;;;;20.27;12.00;;;5.80;99.90;;;;;;5093523;28;20198;-80
2022/02/01 08:29:09;;;;;;;19.15;12.95;;;5.80;99.90;;;;;;5073640;28;20432;-85
2022/02/01 08:31:36;;;;;;;23.87;12.27;;;5.80;99.90;;;;;;5073433;28;20205;-81
2022/02/01 08:34:05;;;;;;;17.83;12.17;;;5.80;99.90;;;;;;5074574;28;20209;-83
2022/02/01 08:36:35;;;;;;;23.10;12.73;;;5.90;99.90;;;;;;5074090;28;20205;-81
2022/02/01 08:39:03;;;;;;;20.20;12.67;;;5.90;99.90;;;;;;5074134;28;20194;-84
2022/02/01 08:41:36;;;;;;;19.00;13.63;;;6.00;99.90;;;;;;5074441;28;20229;-86
2022/02/01 08:44:03;;;;;;;17.53;12.13;;;6.00;99.90;;;;;;5075124;28;20257;-83
2022/02/01 08:46:30;;;;;;;20.53;13.00;;;6.10;99.90;;;;;;5075075;28;20217;-87
2022/02/01 08:48:59;;;;;;;17.93;12.93;;;6.10;99.90;;;;;;5076450;28;20202;-85
2022/02/01 08:51:37;;;;;;;17.63;12.17;;;6.20;99.90;;;;;;5094968;28;20189;-85
2022/02/01 08:54:12;;;;;;;16.90;11.73;;;6.20;99.90;;;;;;5095152;28;20287;-84
2022/02/01 08:59:25;;;;;;;18.63;11.57;;;6.10;99.90;;;;;;5098334;28;20188;-87
2022/02/01 09:01:54;;;;;;;16.63;12.00;;;6.20;99.90;;;;;;5097981;28;20204;-87
2022/02/01 09:04:21;;;;;;;13.77;11.17;;;6.20;99.90;;;;;;5096186;28;20233;-87
2022/02/01 09:06:50;;;;;;;19.30;15.65;;;6.20;99.90;;;;;;5092759;28;20452;-84
2022/02/01 09:09:17;;;;;;;15.97;12.03;;;6.30;99.90;;;;;;5093345;28;20225;-83
2022/02/01 09:12:01;;;;;;;17.40;11.33;;;6.40;99.90;;;;;;5093955;28;20194;-89
2022/02/01 09:14:34;;;;;;;13.90;11.00;;;6.40;99.90;;;;;;5093707;28;20189;-88
2022/02/01 09:17:03;;;;;;;13.30;10.30;;;6.40;99.90;;;;;;5093973;28;20201;-85
2022/02/01 09:19:36;;;;;;;15.67;9.83;;;6.50;99.90;;;;;;5093431;28;20724;-86
2022/02/01 09:22:09;;;;;;;15.17;9.73;;;6.50;99.90;;;;;;5096934;28;20189;-86
2022/02/01 09:24:37;;;;;;;15.13;9.53;;;6.50;99.90;;;;;;5096788;28;20224;-86
2022/02/01 09:27:05;;;;;;;11.73;9.13;;;6.50;99.90;;;;;;5097689;28;20223;-86
2022/02/01 09:29:33;;;;;;;13.20;9.27;;;6.50;99.90;;;;;;5096755;28;20201;-86
2022/02/01 09:32:00;;;;;;;12.80;9.77;;;6.50;99.90;;;;;;5096844;28;20209;-86
2022/02/01 09:34:29;;;;;;;16.03;9.90;;;6.50;99.90;;;;;;5096202;28;20197;-83
2022/02/01 09:36:57;;;;;;;16.30;9.77;;;6.50;99.90;;;;;;5096146;28;20225;-85
2022/02/01 09:39:26;;;;;;;16.67;10.03;;;6.60;99.90;;;;;;5096556;28;20204;-87
2022/02/01 09:41:54;;;;;;;16.77;10.33;;;6.60;99.90;;;;;;5097143;28;20212;-87
2022/02/01 09:44:24;;;;;;;17.20;9.57;;;6.70;99.90;;;;;;5104048;28;20604;-92
2022/02/01 09:46:53;;;;;;;15.83;9.93;;;6.70;99.90;;;;;;5100416;28;20212;-87
2022/02/01 09:49:26;;;;;;;13.57;9.87;;;6.80;99.90;;;;;;5096734;28;20584;-81
2022/02/01 09:51:59;;;;;;;15.30;9.63;;;6.80;99.90;;;;;;5098055;28;20205;-82
2022/02/01 09:54:30;;;;;;;15.50;10.47;;;6.80;99.90;;;;;;5098356;28;20216;-89
2022/02/01 09:57:04;;;;;;;17.77;10.57;;;6.90;99.90;;;;;;5097121;28;20219;-84
2022/02/01 09:59:41;;;;;;;24.20;10.53;;;6.90;99.90;;;;;;5095821;28;20212;-81
2022/02/01 10:02:10;;;;;;;20.73;10.83;;;6.90;99.90;;;;;;5096149;28;20614;-82
2022/02/01 10:04:39;;;;;;;14.80;10.80;;;7.00;99.90;;;;;;5095720;28;20229;-80
2022/02/01 10:07:10;;;;;;;17.43;11.27;;;7.00;99.90;;;;;;5096409;28;20641;-79
2022/02/01 10:09:50;;;;;;;17.70;13.45;;;7.10;99.90;;;;;;5093916;28;20460;-84
2022/02/01 10:12:17;;;;;;;17.80;11.93;;;7.20;99.90;;;;;;5096507;28;20204;-78
2022/02/01 10:14:52;;;;;;;18.47;10.67;;;7.30;99.90;;;;;;5095023;28;20227;-78
2022/02/01 10:17:26;;;;;;;20.03;10.60;;;7.20;99.90;;;;;;5095119;28;20667;-78
2022/02/01 10:19:53;;;;;;;17.83;11.10;;;7.20;99.90;;;;;;5095475;28;20200;-81
2022/02/01 10:22:30;;;;;;;18.93;10.80;;;7.30;99.90;;;;;;5095554;28;20204;-80
2022/02/01 10:25:02;;;;;;;22.73;12.00;;;7.30;99.90;;;;;;5095880;28;20212;-80
2022/02/01 10:27:34;;;;;;;20.13;12.13;;;7.30;99.90;;;;;;5095561;28;20382;-80
2022/02/01 10:30:08;;;;;;;19.70;11.10;;;7.40;99.90;;;;;;5095133;28;20564;-78
2022/02/01 10:35:36;;;;;;;20.70;11.47;;;7.40;99.90;;;;;;5094664;28;20634;-80
2022/02/01 10:38:06;;;;;;;16.43;11.77;;;7.50;99.90;;;;;;5095858;28;20224;-82
2022/02/01 10:40:40;;;;;;;20.37;12.10;;;7.40;99.90;;;;;;5096963;28;20560;-78
2022/02/01 10:43:17;;;;;;;16.40;10.80;;;7.40;99.90;;;;;;5095885;28;20204;-80
2022/02/01 10:45:45;;;;;;;16.20;11.03;;;7.40;99.90;;;;;;5095394;28;20224;-81
2022/02/01 10:48:13;;;;;;;15.80;11.90;;;7.50;99.90;;;;;;5095044;28;20208;-78
2022/02/01 10:50:40;;;;;;;17.90;10.67;;;7.60;99.90;;;;;;5094667;28;20205;-81
2022/02/01 10:53:17;;;;;;;11.73;10.00;;;7.60;99.90;;;;;;5095681;28;20185;-81
2022/02/01 10:55:46;;;;;;;12.70;9.93;;;7.60;99.90;;;;;;5095591;28;20216;-80
2022/02/01 10:58:15;;;;;;;14.13;9.33;;;7.60;99.90;;;;;;5096837;28;20208;-79
2022/02/01 11:00:42;;;;;;;13.77;9.70;;;7.60;99.90;;;;;;5095357;28;20300;-79
2022/02/01 11:03:13;;;;;;;13.77;10.10;;;7.70;99.90;;;;;;5096401;28;20610;-83
2022/02/01 11:05:42;;;;;;;14.57;9.87;;;7.70;99.90;;;;;;5095992;28;20228;-80
2022/02/01 11:08:13;;;;;;;16.60;10.70;;;7.70;99.90;;;;;;5094457;28;20197;-81
2022/02/01 11:10:45;;;;;;;17.13;9.67;;;7.80;99.90;;;;;;5094018;28;20197;-81
2022/02/01 11:13:14;;;;;;;16.67;9.27;;;7.80;99.90;;;;;;5094506;28;20329;-79
2022/02/01 11:15:54;;;;;;;17.07;10.93;;;7.80;99.90;;;;;;5094715;28;20205;-81
2022/02/01 11:18:26;;;;;;;12.97;9.90;;;7.80;99.90;;;;;;5096266;28;20197;-82
2022/02/01 11:20:54;;;;;;;18.13;10.63;;;7.90;99.90;;;;;;5096504;28;20234;-79
2022/02/01 11:23:23;;;;;;;18.13;11.27;;;7.90;99.90;;;;;;5096227;28;20617;-79
2022/02/01 11:25:57;;;;;;;19.40;10.63;;;8.10;99.90;;;;;;5095350;28;20240;-78
2022/02/01 11:28:39;;;;;;;23.07;11.07;;;8.00;99.90;;;;;;5096231;28;20205;-80
2022/02/01 11:31:06;;;;;;;16.63;11.13;;;8.20;99.90;;;;;;5095534;28;20193;-79
2022/02/01 11:33:38;;;;;;;19.83;11.53;;;8.20;99.90;;;;;;5094685;28;20193;-82
2022/02/01 11:36:07;;;;;;;16.23;9.97;;;8.20;99.90;;;;;;5094889;28;20559;-79
2022/02/01 11:38:34;;;;;;;24.00;10.87;;;8.20;99.90;;;;;;5092382;28;20194;-81
2022/02/01 11:41:06;;;;;;;23.00;9.83;;;8.30;99.90;;;;;;5094443;28;20225;-83
2022/02/01 11:43:34;;;;;;;17.90;9.23;;;8.30;99.90;;;;;;5093353;28;20193;-80
2022/02/01 11:46:02;;;;;;;24.23;9.63;;;8.40;99.90;;;;;;5092588;28;20751;-77
2022/02/01 11:48:32;;;;;;;19.40;9.10;;;8.40;99.90;;;;;;5092574;28;20439;-81
2022/02/01 11:51:01;;;;;;;16.37;7.27;;;8.60;99.90;;;;;;5094311;28;20204;-79
2022/02/01 11:53:39;;;;;;;17.80;7.10;;;8.60;99.90;;;;;;5094200;28;20205;-85
2022/02/01 11:56:09;;;;;;;25.40;7.27;;;8.60;99.90;;;;;;5093735;28;20205;-87
2022/02/01 11:58:38;;;;;;;15.23;6.30;;;8.60;99.90;;;;;;5094258;28;20192;-87
2022/02/01 12:01:09;;;;;;;19.27;6.83;;;8.70;99.90;;;;;;5094729;28;20201;-81
2022/02/01 12:03:39;;;;;;;19.30;7.77;;;8.70;99.90;;;;;;5093935;28;20208;-82
2022/02/01 12:06:21;;;;;;;19.07;6.57;;;8.80;99.90;;;;;;5094971;28;20680;-85
2022/02/01 12:08:56;;;;;;;18.97;6.47;;;8.80;99.90;;;;;;5094495;28;20623;-88
2022/02/01 12:11:25;;;;;;;17.63;6.00;;;8.80;99.90;;;;;;5094571;28;20226;-88
2022/02/01 12:13:52;;;;;;;19.80;6.60;;;8.90;99.90;;;;;;5095819;28;20197;-84
2022/02/01 12:16:21;;;;;;;20.53;6.17;;;8.90;99.90;;;;;;5097454;28;20228;-87
2022/02/01 12:18:58;;;;;;;19.60;7.77;;;8.80;99.90;;;;;;5098198;28;20647;-80
2022/02/01 12:21:36;;;;;;;15.20;5.63;;;8.80;99.90;;;;;;5096246;28;20191;-84
2022/02/01 12:24:05;;;;;;;16.70;6.03;;;8.90;99.90;;;;;;5097652;28;20192;-83
2022/02/01 12:26:37;;;;;;;18.70;6.83;;;9.00;99.90;;;;;;5101007;28;20224;-80
2022/02/01 12:29:09;;;;;;;22.90;6.37;;;9.00;99.90;;;;;;5104399;28;20205;-82
2022/02/01 12:31:39;;;;;;;18.33;5.97;;;9.10;99.90;;;;;;5104226;28;20200;-81
2022/02/01 12:34:12;;;;;;;17.47;5.50;;;9.10;99.90;;;;;;5102309;28;20201;-83
2022/02/01 12:36:41;;;;;;;16.07;5.83;;;9.20;99.90;;;;;;5098672;28;20202;-80
2022/02/01 12:39:13;;;;;;;15.63;5.80;;;9.20;99.90;;;;;;5096907;28;20205;-81
2022/02/01 12:41:54;;;;;;;16.70;5.53;;;9.20;99.90;;;;;;5096781;28;20658;-81
2022/02/01 12:47:19;;;;;;;15.17;5.33;;;9.30;99.90;;;;;;5095459;28;20277;-81
2022/02/01 12:49:49;;;;;;;12.20;4.67;;;9.40;99.90;;;;;;5094311;28;20201;-82
2022/02/01 12:52:21;;;;;;;20.73;6.07;;;9.40;99.90;;;;;;5094118;28;20189;-81
2022/02/01 12:54:49;;;;;;;12.67;4.67;;;9.40;99.90;;;;;;5093647;28;20208;-80
2022/02/01 12:57:19;;;;;;;15.53;5.47;;;9.40;99.90;;;;;;5100752;28;20258;-84
2022/02/01 12:59:49;;;;;;;12.33;4.60;;;9.40;99.90;;;;;;5100686;28;20261;-87
2022/02/01 13:02:20;;;;;;;17.30;5.70;;;9.50;99.90;;;;;;5095205;28;20243;-83
2022/02/01 13:04:52;;;;;;;16.20;4.43;;;9.50;99.90;;;;;;5098742;28;20224;-81
2022/02/01 13:07:30;;;;;;;24.57;5.33;;;9.60;99.90;;;;;;5098725;28;20262;-78
2022/02/01 13:13:01;;;;;;;10.80;5.00;;;9.70;99.90;;;;;;5098998;28;20197;-83
2022/02/01 13:15:32;;;;;;;12.70;4.53;;;9.70;99.90;;;;;;5098763;28;20575;-81
2022/02/01 13:18:18;;;;;;;13.93;4.67;;;9.80;99.90;;;;;;5098081;28;20295;-81
2022/02/01 13:20:56;;;;;;;10.93;4.20;;;9.80;99.90;;;;;;5098605;28;20587;-87
2022/02/01 13:23:34;;;;;;;13.00;3.83;;;9.90;99.90;;;;;;5098746;28;20322;-84
2022/02/01 13:26:01;;;;;;;9.27;4.07;;;10.00;99.90;;;;;;5098660;28;20239;-85
2022/02/01 13:28:30;;;;;;;9.33;3.67;;;10.10;99.90;;;;;;5097898;28;20215;-84
2022/02/01 13:31:05;;;;;;;12.23;4.43;;;10.10;99.90;;;;;;5098965;28;20205;-81
2022/02/01 13:33:45;;;;;;;9.95;3.80;;;10.20;99.90;;;;;;5100566;28;20465;-81
2022/02/01 13:36:12;;;;;;;11.27;4.10;;;10.20;99.90;;;;;;5097744;28;20197;-81
2022/02/01 13:38:51;;;;;;;8.47;3.30;;;10.20;99.90;;;;;;5098219;28;20217;-80
2022/02/01 13:41:19;;;;;;;9.40;3.53;;;10.30;99.90;;;;;;5097703;28;20282;-80
2022/02/01 13:43:50;;;;;;;7.27;3.23;;;10.30;99.90;;;;;;5097876;28;20212;-83
2022/02/01 13:46:21;;;;;;;10.40;3.73;;;10.30;99.90;;;;;;5098861;28;20240;-81
2022/02/01 13:48:59;;;;;;;9.07;3.70;;;10.40;99.90;;;;;;5098701;28;20192;-81
2022/02/01 13:51:27;;;;;;;8.63;3.57;;;10.40;99.90;;;;;;5097609;28;20189;-80
2022/02/01 13:53:59;;;;;;;9.63;3.43;;;10.40;99.90;;;;;;5097988;28;20195;-80
2022/02/01 13:56:28;;;;;;;9.13;4.33;;;10.40;99.90;;;;;;5094416;28;20201;-79
2022/02/01 13:59:08;;;;;;;8.47;3.47;;;10.40;99.90;;;;;;5097260;28;20647;-80
2022/02/01 14:01:36;;;;;;;10.60;4.03;;;10.40;99.90;;;;;;5097298;28;20208;-78
2022/02/01 14:04:07;;;;;;;9.40;3.50;;;10.40;99.90;;;;;;5099702;28;20632;-78
2022/02/01 14:06:46;;;;;;;10.10;3.50;;;10.40;99.90;;;;;;5097870;28;20217;-81
2022/02/01 14:09:23;;;;;;;8.07;3.53;;;10.40;99.90;;;;;;5098480;28;20450;-79
2022/02/01 14:12:12;;;;;;;9.27;3.60;;;10.40;99.90;;;;;;5097862;28;20229;-80